Time;durP1;ratioP1;P1;durP2;ratioP2;P2;SDS_P1;SDS_P2;PMS_P1;PMS_P2;Temp;Humidity;BMP_temperature;BMP_pressure;BME280_temperature;BME280_humidity;BME280_pressure;Samples;Min_cycle;Max_cycle;Signal;HPM_P1;HPM_P2
2022/09/13 00:01:08;;;;;;;19.20;5.18;;;20.90;80.70;;;;;;5031191;28;20035;-63
2022/09/13 00:03:33;;;;;;;20.05;5.53;;;20.90;80.80;;;;;;5031543;28;20056;-63
2022/09/13 00:06:12;;;;;;;21.80;5.53;;;20.90;80.80;;;;;;5034462;28;20393;-63
2022/09/13 00:08:38;;;;;;;24.40;5.68;;;21.00;80.90;;;;;;5035927;28;20465;-63
2022/09/13 00:11:04;;;;;;;30.13;5.38;;;20.90;81.00;;;;;;5034249;28;20090;-63
2022/09/13 00:13:29;;;;;;;20.88;5.53;;;20.90;81.00;;;;;;5035426;28;21337;-63
2022/09/13 00:15:55;;;;;;;21.35;5.63;;;20.80;80.90;;;;;;5034709;28;20037;-63
2022/09/13 00:18:20;;;;;;;15.75;5.72;;;20.80;81.00;;;;;;5034988;28;20527;-63
2022/09/13 00:20:46;;;;;;;21.83;7.47;;;20.80;81.00;;;;;;5035966;28;20555;-63
2022/09/13 00:23:11;;;;;;;15.73;6.47;;;20.80;81.80;;;;;;5035937;28;20248;-63
2022/09/13 00:25:37;;;;;;;21.42;5.72;;;20.80;81.30;;;;;;5035297;28;20052;-62
2022/09/13 00:28:03;;;;;;;16.20;5.90;;;20.80;81.30;;;;;;5015937;28;20056;-63
2022/09/13 00:30:28;;;;;;;17.02;5.55;;;20.80;81.40;;;;;;5003590;28;20108;-63
2022/09/13 00:32:54;;;;;;;15.48;5.30;;;20.70;81.40;;;;;;5032947;28;20718;-63
2022/09/13 00:35:19;;;;;;;19.92;5.68;;;20.70;81.40;;;;;;5020218;28;20300;-63
2022/09/13 00:37:45;;;;;;;16.63;5.07;;;20.70;81.50;;;;;;5017653;28;20032;-63
2022/09/13 00:40:11;;;;;;;16.00;4.95;;;20.70;81.50;;;;;;5034332;28;20099;-63
2022/09/13 00:42:37;;;;;;;15.88;4.85;;;20.70;81.50;;;;;;5034157;28;20029;-63
2022/09/13 00:45:11;;;;;;;15.27;4.68;;;20.70;81.50;;;;;;5032397;28;20060;-63
2022/09/13 00:47:52;;;;;;;17.75;4.90;;;20.60;81.60;;;;;;5034288;28;20033;-63
2022/09/13 00:50:24;;;;;;;12.40;5.10;;;20.60;81.60;;;;;;5035106;28;20041;-63
2022/09/13 00:53:21;;;;;;;10.18;5.03;;;20.60;81.80;;;;;;5016917;28;20064;-63
2022/09/13 00:55:51;;;;;;;19.33;5.30;;;20.60;81.80;;;;;;5031959;28;20041;-62
2022/09/13 00:58:26;;;;;;;19.55;4.68;;;20.60;81.90;;;;;;5019857;28;20032;-63
2022/09/13 01:00:52;;;;;;;13.05;4.85;;;20.60;81.90;;;;;;5035627;28;20047;-63
2022/09/13 01:03:18;;;;;;;13.00;4.65;;;20.50;81.90;;;;;;5035363;28;20484;-63
2022/09/13 01:05:50;;;;;;;8.70;4.15;;;20.50;82.00;;;;;;5032491;28;20068;-63
2022/09/13 01:08:21;;;;;;;18.15;5.05;;;20.50;82.00;;;;;;5030584;28;20017;-63
2022/09/13 01:10:50;;;;;;;14.82;4.97;;;20.50;82.00;;;;;;5033657;28;20040;-63
2022/09/13 01:13:17;;;;;;;15.95;4.13;;;20.50;82.10;;;;;;5029819;28;20061;-63
2022/09/13 01:15:43;;;;;;;12.98;4.35;;;20.50;82.10;;;;;;5033658;28;20071;-63
2022/09/13 01:18:09;;;;;;;6.97;4.13;;;20.40;82.20;;;;;;5033903;28;20442;-68
2022/09/13 01:21:00;;;;;;;14.38;4.63;;;20.40;82.30;;;;;;5031965;28;20140;-63
2022/09/13 01:24:04;;;;;;;12.43;4.40;;;20.50;82.40;;;;;;5033533;28;20039;-63
2022/09/13 01:26:51;;;;;;;12.90;4.07;;;20.40;82.40;;;;;;5034819;28;20040;-63
2022/09/13 01:29:41;;;;;;;10.70;3.88;;;20.40;82.50;;;;;;5031327;28;20555;-63
2022/09/13 01:32:26;;;;;;;11.40;4.05;;;20.40;82.30;;;;;;5032951;28;20045;-63
2022/09/13 01:35:14;;;;;;;7.05;3.80;;;20.40;82.30;;;;;;5015849;28;20032;-63
2022/09/13 01:37:46;;;;;;;10.73;4.25;;;20.40;82.30;;;;;;5031201;28;20045;-63
2022/09/13 01:40:28;;;;;;;13.68;4.22;;;20.40;82.40;;;;;;5034276;28;20096;-63
2022/09/13 01:43:07;;;;;;;9.80;4.28;;;20.30;82.50;;;;;;5031279;28;20156;-63
2022/09/13 01:45:37;;;;;;;11.15;5.00;;;20.30;82.60;;;;;;5033331;28;20037;-63
2022/09/13 01:48:09;;;;;;;11.18;4.88;;;20.30;82.70;;;;;;5036234;28;20029;-63
2022/09/13 01:50:41;;;;;;;9.93;4.55;;;20.30;83.00;;;;;;5034072;28;20408;-62
2022/09/13 01:53:33;;;;;;;10.00;4.45;;;20.30;83.00;;;;;;5031339;28;20126;-63
2022/09/13 01:56:06;;;;;;;15.00;4.85;;;20.30;83.30;;;;;;5034750;28;20076;-62
2022/09/13 01:58:45;;;;;;;11.15;4.80;;;20.30;83.10;;;;;;5014289;28;20488;-62
2022/09/13 02:01:18;;;;;;;13.57;4.60;;;20.20;83.30;;;;;;5014088;28;20040;-63
2022/09/13 02:03:55;;;;;;;12.35;4.28;;;20.20;83.70;;;;;;5032108;28;20017;-63
2022/09/13 02:06:35;;;;;;;8.23;4.20;;;20.20;83.40;;;;;;5015342;28;20025;-62
2022/09/13 02:09:04;;;;;;;7.95;4.50;;;20.20;83.40;;;;;;5020633;28;20021;-63
2022/09/13 02:11:29;;;;;;;10.57;4.28;;;20.10;83.40;;;;;;5017252;28;20707;-63
2022/09/13 02:14:11;;;;;;;7.40;3.65;;;20.10;83.40;;;;;;5017317;28;20065;-63
2022/09/13 02:16:53;;;;;;;12.20;4.25;;;20.10;83.50;;;;;;5019260;28;20029;-63
2022/09/13 02:19:25;;;;;;;8.55;3.75;;;20.10;83.40;;;;;;5030161;28;20026;-63
2022/09/13 02:21:53;;;;;;;9.98;4.07;;;20.10;83.30;;;;;;5018243;28;20083;-64
2022/09/13 02:24:22;;;;;;;7.30;4.05;;;20.10;83.30;;;;;;5006779;28;20029;-64
2022/09/13 02:26:48;;;;;;;8.52;4.00;;;20.10;83.40;;;;;;5019958;28;20029;-63
2022/09/13 02:29:16;;;;;;;10.68;4.80;;;20.10;83.40;;;;;;5019470;28;20065;-63
2022/09/13 02:31:45;;;;;;;11.80;4.70;;;20.10;83.50;;;;;;5018583;28;20107;-63
2022/09/13 02:34:17;;;;;;;14.05;4.60;;;20.10;83.60;;;;;;5022583;28;20035;-62
2022/09/13 02:36:43;;;;;;;10.63;4.82;;;20.00;83.70;;;;;;5023572;28;20025;-63
2022/09/13 02:39:12;;;;;;;7.00;3.97;;;20.00;83.70;;;;;;5034012;28;20504;-63
2022/09/13 02:41:46;;;;;;;8.07;4.50;;;20.00;83.70;;;;;;5016014;28;20116;-63
2022/09/13 02:44:21;;;;;;;12.93;4.22;;;20.00;83.70;;;;;;5034099;28;20050;-63
2022/09/13 02:47:10;;;;;;;6.90;3.80;;;20.00;83.70;;;;;;5036938;28;20040;-63
2022/09/13 02:49:51;;;;;;;8.93;3.90;;;20.00;83.70;;;;;;5035885;28;20017;-65
2022/09/13 02:52:27;;;;;;;8.75;4.10;;;20.00;83.70;;;;;;5035760;28;20116;-63
2022/09/13 02:55:19;;;;;;;13.02;4.63;;;19.90;83.60;;;;;;5038169;28;20056;-63
2022/09/13 02:58:00;;;;;;;8.48;3.30;;;19.90;83.70;;;;;;5033904;28;20045;-63
2022/09/13 03:00:25;;;;;;;9.40;4.10;;;19.90;83.70;;;;;;5035608;28;20029;-62
2022/09/13 03:02:51;;;;;;;13.32;4.13;;;20.00;83.80;;;;;;5032367;28;20451;-63
2022/09/13 03:05:16;;;;;;;9.13;3.40;;;19.90;83.80;;;;;;5033502;28;20110;-63
2022/09/13 03:07:42;;;;;;;11.30;3.60;;;19.80;83.80;;;;;;5035423;28;20315;-63
2022/09/13 03:10:10;;;;;;;10.27;3.50;;;19.90;83.90;;;;;;5020679;28;20022;-63
2022/09/13 03:12:35;;;;;;;7.03;3.55;;;19.90;83.90;;;;;;5014994;28;20917;-62
2022/09/13 03:15:10;;;;;;;12.52;3.40;;;19.90;84.00;;;;;;5032922;28;20032;-63
2022/09/13 03:17:59;;;;;;;6.40;3.30;;;19.80;84.00;;;;;;5036626;28;20110;-63
2022/09/13 03:21:06;;;;;;;13.57;3.38;;;19.80;84.00;;;;;;5035524;28;20033;-63
2022/09/13 03:24:04;;;;;;;16.75;3.72;;;19.80;84.00;;;;;;5036329;28;20053;-62
2022/09/13 03:26:39;;;;;;;7.35;3.20;;;19.70;84.00;;;;;;5037020;28;20021;-62
2022/09/13 03:29:26;;;;;;;8.05;3.30;;;19.70;84.00;;;;;;5033258;28;20722;-63
2022/09/13 03:32:17;;;;;;;6.93;3.15;;;19.70;84.00;;;;;;5032550;28;20041;-63
2022/09/13 03:35:06;;;;;;;6.22;3.08;;;19.70;83.90;;;;;;5016077;28;20155;-63
2022/09/13 03:37:42;;;;;;;11.32;3.30;;;19.70;84.00;;;;;;5012322;28;20453;-63
2022/09/13 03:40:15;;;;;;;10.38;3.13;;;19.70;84.70;;;;;;5018461;28;20094;-63
2022/09/13 03:42:42;;;;;;;9.65;3.47;;;19.70;84.10;;;;;;5029883;28;20620;-65
2022/09/13 03:45:08;;;;;;;12.90;4.22;;;19.60;84.10;;;;;;5035144;28;20056;-64
2022/09/13 03:47:33;;;;;;;10.95;4.30;;;19.60;84.20;;;;;;5017262;28;20484;-64
2022/09/13 03:49:59;;;;;;;13.77;4.70;;;19.60;84.30;;;;;;5016847;28;20028;-63
2022/09/13 03:52:25;;;;;;;8.63;3.80;;;19.60;84.30;;;;;;5032894;28;20063;-63
2022/09/13 03:54:51;;;;;;;12.40;4.07;;;19.60;84.30;;;;;;5021041;28;20114;-63
2022/09/13 03:57:20;;;;;;;6.97;3.55;;;19.50;84.30;;;;;;5033456;28;20061;-62
2022/09/13 03:59:47;;;;;;;10.75;3.30;;;19.50;84.30;;;;;;5031670;28;20025;-63
2022/09/13 04:02:12;;;;;;;12.65;3.47;;;19.50;84.40;;;;;;5031248;28;20520;-63
2022/09/13 04:04:39;;;;;;;7.78;3.47;;;19.50;84.40;;;;;;5022174;28;20057;-63
2022/09/13 04:07:05;;;;;;;14.43;4.05;;;19.50;84.40;;;;;;5033901;28;20033;-63
2022/09/13 04:09:30;;;;;;;11.05;3.15;;;19.50;84.40;;;;;;5034993;28;20087;-63
2022/09/13 04:11:56;;;;;;;7.38;3.00;;;19.50;84.40;;;;;;5031835;28;20029;-63
2022/09/13 04:14:25;;;;;;;5.55;3.05;;;19.50;84.40;;;;;;5030739;28;20041;-63
2022/09/13 04:16:54;;;;;;;9.25;3.03;;;19.50;84.50;;;;;;5035010;28;20029;-63
2022/09/13 04:19:19;;;;;;;8.27;3.20;;;19.40;84.50;;;;;;5031077;28;20025;-63
2022/09/13 04:21:49;;;;;;;6.50;2.85;;;19.50;84.60;;;;;;5034094;28;20085;-63
2022/09/13 04:24:16;;;;;;;10.70;3.33;;;19.50;84.60;;;;;;5033293;28;20435;-63
2022/09/13 04:26:41;;;;;;;8.05;3.22;;;19.40;84.60;;;;;;5033606;28;20025;-62
2022/09/13 04:29:07;;;;;;;8.15;2.85;;;19.40;84.70;;;;;;5035249;28;20030;-62
2022/09/13 04:31:32;;;;;;;6.22;3.22;;;19.40;84.70;;;;;;5034239;28;20037;-63
2022/09/13 04:33:58;;;;;;;5.72;2.78;;;19.40;84.70;;;;;;5030768;28;20032;-62
2022/09/13 04:36:24;;;;;;;4.43;2.60;;;19.30;84.70;;;;;;5034249;28;20366;-63
2022/09/13 04:38:50;;;;;;;8.93;2.90;;;19.30;84.70;;;;;;5016510;28;20040;-63
2022/09/13 04:41:16;;;;;;;10.18;3.10;;;19.30;84.70;;;;;;5032932;28;20043;-63
2022/09/13 04:43:42;;;;;;;8.20;3.13;;;19.30;84.70;;;;;;5026705;28;20040;-63
2022/09/13 04:46:07;;;;;;;6.30;2.75;;;19.30;84.80;;;;;;5032634;28;20033;-63
2022/09/13 04:48:33;;;;;;;3.72;2.80;;;19.30;84.90;;;;;;5032426;28;20029;-62
2022/09/13 04:51:04;;;;;;;7.10;2.63;;;19.30;84.90;;;;;;5031662;28;20033;-62
2022/09/13 04:53:30;;;;;;;6.22;2.50;;;19.30;84.80;;;;;;5035790;28;20024;-63
2022/09/13 04:56:03;;;;;;;4.38;2.55;;;19.30;84.90;;;;;;5035304;28;20104;-63
2022/09/13 04:58:30;;;;;;;5.75;2.67;;;19.30;85.00;;;;;;5031933;28;20515;-62
2022/09/13 05:01:02;;;;;;;3.67;2.45;;;19.30;85.00;;;;;;5016960;28;20021;-63
2022/09/13 05:03:30;;;;;;;4.80;2.97;;;19.20;85.10;;;;;;5031342;28;20029;-63
2022/09/13 05:06:01;;;;;;;6.43;2.72;;;19.20;85.10;;;;;;5031008;28;20040;-63
2022/09/13 05:08:26;;;;;;;5.85;2.72;;;19.20;85.10;;;;;;5035011;28;20104;-63
2022/09/13 05:10:51;;;;;;;5.32;3.05;;;19.20;85.20;;;;;;5033230;28;20162;-63
2022/09/13 05:13:17;;;;;;;9.15;2.83;;;19.20;85.20;;;;;;5033979;28;20037;-63
2022/09/13 05:15:43;;;;;;;5.45;3.08;;;19.20;85.20;;;;;;5035366;28;20097;-62
2022/09/13 05:18:08;;;;;;;5.97;2.70;;;19.10;85.30;;;;;;5030950;28;20333;-63
2022/09/13 05:20:34;;;;;;;6.78;2.60;;;19.10;85.40;;;;;;5030896;28;20108;-63
2022/09/13 05:23:00;;;;;;;5.95;2.78;;;19.00;85.30;;;;;;5030918;28;20529;-62
2022/09/13 05:25:25;;;;;;;5.95;2.72;;;19.10;85.30;;;;;;5033489;28;20267;-63
2022/09/13 05:27:50;;;;;;;5.00;2.15;;;19.10;85.40;;;;;;5031979;28;20087;-62
2022/09/13 05:30:16;;;;;;;3.33;2.45;;;19.00;85.40;;;;;;5029316;28;20036;-63
2022/09/13 05:32:42;;;;;;;4.45;2.80;;;19.10;85.40;;;;;;5029829;28;20064;-63
2022/09/13 05:35:08;;;;;;;5.10;2.30;;;19.10;85.40;;;;;;5013798;28;20037;-64
2022/09/13 05:37:33;;;;;;;7.35;2.72;;;19.10;85.40;;;;;;5030350;28;20029;-64
2022/09/13 05:39:59;;;;;;;5.95;2.38;;;19.00;85.40;;;;;;5031996;28;20677;-64
2022/09/13 05:42:24;;;;;;;3.75;2.30;;;19.00;85.50;;;;;;4999104;28;21133;-64
2022/09/13 05:44:50;;;;;;;5.47;2.10;;;19.00;85.60;;;;;;5030912;28;20051;-63
2022/09/13 05:47:15;;;;;;;3.00;2.30;;;19.00;85.80;;;;;;5031544;28;20978;-64
2022/09/13 05:49:41;;;;;;;4.10;2.17;;;19.00;86.00;;;;;;5031900;28;20043;-64
2022/09/13 05:52:07;;;;;;;4.50;2.47;;;19.00;86.40;;;;;;5032888;28;20040;-64
2022/09/13 05:54:33;;;;;;;4.63;2.50;;;18.90;86.70;;;;;;5038193;28;20040;-64
2022/09/13 05:56:58;;;;;;;8.20;2.67;;;18.90;87.20;;;;;;5035324;28;20377;-64
2022/09/13 05:59:24;;;;;;;6.22;2.38;;;18.80;87.50;;;;;;5036591;28;20033;-64
2022/09/13 06:01:49;;;;;;;5.55;2.20;;;18.80;88.10;;;;;;5037917;28;20558;-64
2022/09/13 06:04:15;;;;;;;7.25;2.47;;;18.70;88.50;;;;;;5038343;28;20094;-61
2022/09/13 06:06:40;;;;;;;8.63;2.50;;;18.70;89.00;;;;;;5035749;28;20064;-62
2022/09/13 06:09:07;;;;;;;6.03;2.53;;;18.60;89.10;;;;;;5035019;28;20167;-62
2022/09/13 06:11:33;;;;;;;4.72;2.45;;;18.60;89.60;;;;;;5035161;28;20118;-61
2022/09/13 06:13:58;;;;;;;10.38;2.53;;;18.60;89.90;;;;;;5037150;28;20103;-61
2022/09/13 06:16:24;;;;;;;9.65;3.15;;;18.50;90.10;;;;;;5036638;28;20041;-61
2022/09/13 06:18:49;;;;;;;7.40;3.03;;;18.50;90.20;;;;;;5036282;28;20041;-61
2022/09/13 06:21:16;;;;;;;12.40;3.15;;;18.50;90.40;;;;;;5036433;28;20132;-61
2022/09/13 06:23:50;;;;;;;14.77;4.20;;;18.50;90.50;;;;;;5036943;28;20484;-61
2022/09/13 06:26:17;;;;;;;9.52;3.40;;;18.40;90.70;;;;;;5036049;28;20039;-62
2022/09/13 06:28:45;;;;;;;10.07;3.28;;;18.40;90.90;;;;;;5038971;28;20024;-62
2022/09/13 06:31:12;;;;;;;12.23;3.53;;;18.50;91.00;;;;;;5020451;28;20246;-61
2022/09/13 06:33:39;;;;;;;8.57;3.17;;;18.30;91.10;;;;;;5031889;28;20405;-61
2022/09/13 06:36:09;;;;;;;15.45;3.72;;;18.30;91.30;;;;;;5032219;28;20082;-62
2022/09/13 06:38:35;;;;;;;19.00;4.07;;;18.30;91.50;;;;;;5035022;28;20041;-63
2022/09/13 06:41:11;;;;;;;18.30;3.13;;;18.30;91.70;;;;;;5018270;28;20021;-61
2022/09/13 06:43:37;;;;;;;19.73;3.30;;;18.30;92.00;;;;;;5029794;28;20099;-61
2022/09/13 06:46:07;;;;;;;11.95;3.25;;;18.30;92.00;;;;;;5033466;28;20025;-61
2022/09/13 06:48:34;;;;;;;12.15;3.33;;;18.30;92.10;;;;;;5035028;28;20079;-62
2022/09/13 06:51:00;;;;;;;8.60;3.65;;;18.20;92.20;;;;;;5035955;28;20016;-61
2022/09/13 06:53:27;;;;;;;6.85;2.70;;;18.20;92.30;;;;;;5017856;28;20037;-61
2022/09/13 06:56:13;;;;;;;11.40;3.20;;;18.20;92.40;;;;;;5021241;28;20020;-62
2022/09/13 06:58:40;;;;;;;8.68;3.15;;;18.30;92.60;;;;;;5033797;28;20029;-64
2022/09/13 07:01:16;;;;;;;8.73;2.85;;;18.20;92.70;;;;;;5034817;28;20027;-63
2022/09/13 07:03:44;;;;;;;7.07;3.08;;;18.20;92.70;;;;;;5020842;28;20017;-61
2022/09/13 07:06:17;;;;;;;8.27;2.97;;;18.20;92.60;;;;;;5033507;28;20104;-61
2022/09/13 07:08:42;;;;;;;12.57;3.20;;;18.30;92.70;;;;;;5015072;28;20106;-61
2022/09/13 07:11:09;;;;;;;15.45;3.00;;;18.30;92.80;;;;;;5015980;28;20036;-61
2022/09/13 07:13:35;;;;;;;11.98;2.85;;;18.30;93.00;;;;;;5034823;28;20029;-61
2022/09/13 07:16:02;;;;;;;14.18;3.42;;;18.30;92.60;;;;;;5035921;28;20044;-61
2022/09/13 07:18:28;;;;;;;16.92;2.92;;;18.30;92.80;;;;;;5025069;28;20033;-62
2022/09/13 07:21:02;;;;;;;11.75;3.45;;;18.30;92.90;;;;;;5030848;28;20430;-61
2022/09/13 07:23:28;;;;;;;19.30;3.05;;;18.30;93.00;;;;;;5022639;28;20040;-61
2022/09/13 07:25:54;;;;;;;17.40;3.30;;;18.40;93.00;;;;;;5032668;28;20544;-61
2022/09/13 07:28:20;;;;;;;12.10;2.85;;;18.40;92.90;;;;;;5031990;28;20385;-61
2022/09/13 07:30:45;;;;;;;16.00;3.47;;;18.40;92.80;;;;;;5032539;28;20052;-61
2022/09/13 07:33:11;;;;;;;21.90;3.38;;;18.40;92.80;;;;;;5028280;28;20048;-61
2022/09/13 07:35:37;;;;;;;20.70;3.05;;;18.40;92.50;;;;;;5030547;28;20067;-62
2022/09/13 07:38:02;;;;;;;14.63;3.08;;;18.50;92.80;;;;;;5022182;28;20086;-61
2022/09/13 07:40:28;;;;;;;22.13;3.38;;;18.50;92.90;;;;;;5030464;28;20503;-66
2022/09/13 07:42:53;;;;;;;32.03;3.47;;;18.50;93.00;;;;;;5027093;28;20115;-64
2022/09/13 07:45:19;;;;;;;21.55;2.78;;;18.50;93.10;;;;;;5027718;28;20052;-64
2022/09/13 07:47:45;;;;;;;23.63;3.08;;;18.60;93.10;;;;;;5032367;28;22340;-63
2022/09/13 07:50:11;;;;;;;10.68;2.65;;;18.60;93.20;;;;;;5026497;28;20064;-64
2022/09/13 07:52:36;;;;;;;19.60;2.90;;;18.60;93.10;;;;;;5032472;28;20036;-61
2022/09/13 07:55:02;;;;;;;20.17;2.58;;;18.60;93.10;;;;;;5032450;28;20048;-61
2022/09/13 07:57:28;;;;;;;23.90;2.53;;;18.60;93.00;;;;;;5033694;28;20035;-64
2022/09/13 07:59:54;;;;;;;24.15;2.65;;;18.70;93.00;;;;;;5031167;28;20417;-64
2022/09/13 08:02:19;;;;;;;19.08;3.08;;;18.70;93.10;;;;;;5031376;28;20488;-64
2022/09/13 08:04:45;;;;;;;17.42;3.10;;;18.70;93.00;;;;;;5031954;28;20040;-61
2022/09/13 08:07:10;;;;;;;22.45;3.35;;;18.80;93.00;;;;;;5026102;28;20117;-61
2022/09/13 08:09:36;;;;;;;13.60;2.60;;;18.80;92.90;;;;;;5027243;28;20041;-62
2022/09/13 08:12:02;;;;;;;25.25;2.95;;;18.80;92.70;;;;;;5029584;28;20028;-61
2022/09/13 08:14:27;;;;;;;21.65;2.80;;;18.80;92.50;;;;;;5034181;28;20071;-62
2022/09/13 08:16:56;;;;;;;17.73;2.65;;;18.90;92.50;;;;;;5030677;28;20037;-61
2022/09/13 08:19:21;;;;;;;19.80;2.95;;;18.90;92.40;;;;;;5030814;28;20538;-61
2022/09/13 08:21:47;;;;;;;31.92;2.90;;;18.90;92.50;;;;;;5028142;28;20069;-61
2022/09/13 08:24:17;;;;;;;15.38;2.60;;;19.00;92.60;;;;;;5027964;28;20364;-61
2022/09/13 08:26:43;;;;;;;15.15;2.90;;;19.00;92.60;;;;;;5024766;28;20162;-64
2022/09/13 08:29:09;;;;;;;18.27;2.95;;;19.00;92.50;;;;;;5011744;28;20021;-65
2022/09/13 08:31:35;;;;;;;25.73;2.95;;;19.00;92.30;;;;;;5016159;28;20029;-64
2022/09/13 08:34:00;;;;;;;20.00;2.33;;;19.10;92.20;;;;;;5016635;28;20045;-64
2022/09/13 08:36:26;;;;;;;12.13;2.47;;;19.10;92.20;;;;;;5033266;28;20061;-64
2022/09/13 08:38:53;;;;;;;20.08;2.58;;;19.10;92.20;;;;;;5030760;28;20051;-64
2022/09/13 08:41:41;;;;;;;27.73;3.60;;;19.20;92.10;;;;;;5024010;28;21036;-64
2022/09/13 08:44:25;;;;;;;25.92;3.30;;;19.20;92.10;;;;;;5028492;28;20557;-61
2022/09/13 08:46:51;;;;;;;15.40;3.13;;;19.20;92.10;;;;;;5023753;28;20025;-62
2022/09/13 08:49:20;;;;;;;16.85;2.85;;;19.30;92.00;;;;;;5009280;28;20036;-61
2022/09/13 08:51:50;;;;;;;21.17;2.78;;;19.30;92.00;;;;;;5030150;28;21223;-61
2022/09/13 08:54:16;;;;;;;14.80;3.03;;;19.30;92.00;;;;;;5012466;28;20036;-61
2022/09/13 08:57:15;;;;;;;26.98;3.42;;;19.40;92.00;;;;;;5013737;28;20037;-61
2022/09/13 09:00:08;;;;;;;18.63;2.85;;;19.40;91.80;;;;;;5014317;28;20652;-61
2022/09/13 09:02:46;;;;;;;25.77;4.00;;;19.50;91.70;;;;;;5026257;28;20044;-62
2022/09/13 09:05:12;;;;;;;25.05;2.95;;;19.50;91.70;;;;;;5025798;28;20108;-61
2022/09/13 09:07:46;;;;;;;27.67;3.85;;;19.50;91.50;;;;;;5027653;28;20160;-61
2022/09/13 09:10:26;;;;;;;50.75;5.97;;;19.50;91.40;;;;;;5013276;28;20141;-61
2022/09/13 09:13:01;;;;;;;30.88;4.65;;;19.60;91.40;;;;;;5005517;28;20056;-62
2022/09/13 09:15:52;;;;;;;40.47;5.18;;;19.60;91.20;;;;;;5008477;28;20029;-61
2022/09/13 09:18:24;;;;;;;41.47;5.30;;;19.70;91.20;;;;;;5027203;28;20124;-64
2022/09/13 09:20:55;;;;;;;35.70;5.10;;;19.70;91.10;;;;;;5027703;28;20044;-63
2022/09/13 09:23:40;;;;;;;41.35;5.57;;;19.80;91.00;;;;;;5030758;28;20035;-64
2022/09/13 09:26:21;;;;;;;66.80;7.22;;;19.80;90.80;;;;;;5030319;28;20025;-63
2022/09/13 09:29:12;;;;;;;44.63;6.47;;;19.90;90.80;;;;;;5024236;28;20417;-64
2022/09/13 09:31:37;;;;;;;39.47;5.70;;;19.90;90.60;;;;;;5027986;28;20547;-61
2022/09/13 09:34:07;;;;;;;36.97;5.75;;;20.00;90.40;;;;;;5027223;28;20041;-61
2022/09/13 09:36:39;;;;;;;43.83;6.05;;;20.10;90.30;;;;;;5024396;28;20078;-61
2022/09/13 09:39:06;;;;;;;54.40;7.22;;;20.10;90.00;;;;;;5013411;28;20029;-62
2022/09/13 09:41:33;;;;;;;42.90;5.70;;;20.20;90.00;;;;;;5006043;28;20036;-61
2022/09/13 09:44:19;;;;;;;46.50;6.03;;;20.20;89.70;;;;;;4998840;28;20132;-61
2022/09/13 09:46:47;;;;;;;65.68;6.82;;;20.20;89.40;;;;;;5018893;28;20125;-64
2022/09/13 09:52:10;;;;;;;58.00;6.63;;;20.40;88.70;;;;;;5021246;28;20127;-63
2022/09/13 09:54:37;;;;;;;61.80;7.18;;;20.40;88.20;;;;;;5007509;28;20118;-64
2022/09/13 09:57:05;;;;;;;36.63;5.60;;;20.50;87.70;;;;;;5009124;28;20381;-64
2022/09/13 09:59:32;;;;;;;51.10;5.70;;;20.60;87.50;;;;;;5029114;28;20079;-63
2022/09/13 10:02:03;;;;;;;57.65;6.10;;;20.60;87.20;;;;;;5009849;28;20060;-64
2022/09/13 10:04:29;;;;;;;60.13;6.10;;;20.60;86.80;;;;;;5018515;28;20108;-64
2022/09/13 10:07:16;;;;;;;59.55;6.60;;;20.70;86.50;;;;;;5022038;28;20059;-63
2022/09/13 10:09:56;;;;;;;71.47;7.00;;;20.80;86.10;;;;;;5025241;28;20036;-62
2022/09/13 10:12:26;;;;;;;41.40;6.80;;;20.80;85.80;;;;;;5029243;28;20045;-62
2022/09/13 10:14:57;;;;;;;52.92;7.78;;;20.90;85.70;;;;;;5008832;28;20107;-61
2022/09/13 10:17:24;;;;;;;85.03;8.73;;;20.90;85.50;;;;;;5011085;28;20036;-61
2022/09/13 10:20:12;;;;;;;86.35;8.88;;;20.90;84.90;;;;;;5013629;28;20033;-62
2022/09/13 10:22:38;;;;;;;79.93;9.43;;;21.00;84.70;;;;;;5025970;28;20049;-64
2022/09/13 10:25:24;;;;;;;76.63;8.20;;;21.00;84.50;;;;;;5011320;28;20040;-64
2022/09/13 10:28:00;;;;;;;80.57;8.93;;;21.00;84.50;;;;;;5024287;28;20036;-64
2022/09/13 10:30:52;;;;;;;79.35;9.35;;;21.10;84.30;;;;;;5015916;28;20087;-64
2022/09/13 10:33:35;;;;;;;61.83;7.13;;;21.20;84.00;;;;;;5029829;28;20115;-64
2022/09/13 10:36:03;;;;;;;74.53;8.43;;;21.30;83.50;;;;;;5028826;28;20052;-62
2022/09/13 10:38:33;;;;;;;66.82;6.65;;;21.30;82.90;;;;;;5026859;28;20783;-62
2022/09/13 10:41:00;;;;;;;80.80;9.30;;;21.40;82.20;;;;;;5014449;28;20641;-63
2022/09/13 10:43:27;;;;;;;70.93;8.60;;;21.50;82.00;;;;;;5026997;28;20059;-64
2022/09/13 10:45:53;;;;;;;67.90;8.40;;;21.50;82.00;;;;;;5018946;28;20041;-64
2022/09/13 10:48:19;;;;;;;89.95;9.80;;;21.50;81.90;;;;;;5030438;28;20025;-64
2022/09/13 10:51:17;;;;;;;78.28;9.25;;;21.60;82.00;;;;;;5032923;28;20687;-64
2022/09/13 10:53:42;;;;;;;83.22;10.10;;;21.70;82.00;;;;;;5029608;28;20524;-62
2022/09/13 10:56:22;;;;;;;75.53;10.07;;;21.70;82.50;;;;;;5018414;28;20029;-62
2022/09/13 10:58:48;;;;;;;93.65;10.35;;;21.80;81.40;;;;;;5000737;28;20588;-64
2022/09/13 11:01:54;;;;;;;64.60;8.57;;;21.90;81.90;;;;;;5024241;28;20171;-65
2022/09/13 11:04:35;;;;;;;77.47;9.52;;;21.90;81.50;;;;;;5012495;28;20037;-61
2022/09/13 11:07:19;;;;;;;94.50;9.75;;;22.00;81.90;;;;;;5030554;28;20025;-62
2022/09/13 11:10:10;;;;;;;98.63;11.77;;;22.10;81.90;;;;;;5030236;28;20103;-62
2022/09/13 11:12:44;;;;;;;91.07;10.15;;;22.20;81.70;;;;;;5028880;28;20033;-62
2022/09/13 11:15:24;;;;;;;103.32;11.50;;;22.30;81.30;;;;;;5027935;28;20030;-62
2022/09/13 11:18:05;;;;;;;109.40;12.73;;;22.30;81.70;;;;;;5026751;28;20032;-62
2022/09/13 11:20:54;;;;;;;102.40;13.15;;;22.50;81.70;;;;;;5032861;28;20132;-62
2022/09/13 11:23:44;;;;;;;183.20;18.65;;;22.50;81.30;;;;;;5028788;28;20103;-62
2022/09/13 11:26:32;;;;;;;109.00;11.98;;;22.60;81.70;;;;;;5033672;28;20030;-62
2022/09/13 11:29:04;;;;;;;87.18;10.77;;;22.60;81.10;;;;;;5028761;28;20049;-62
2022/09/13 11:31:39;;;;;;;90.38;11.05;;;22.70;81.00;;;;;;5030658;28;20108;-62
2022/09/13 11:34:21;;;;;;;90.00;11.32;;;22.80;81.00;;;;;;5029279;28;20041;-63
2022/09/13 11:37:03;;;;;;;82.25;9.20;;;22.80;80.70;;;;;;5030252;28;20296;-62
2022/09/13 11:39:30;;;;;;;79.03;9.35;;;22.90;80.40;;;;;;5029144;28;20045;-62
2022/09/13 11:42:14;;;;;;;77.72;8.85;;;22.90;80.30;;;;;;5024340;28;20044;-62
2022/09/13 11:44:47;;;;;;;71.22;8.48;;;23.00;79.70;;;;;;5028948;28;20069;-62
2022/09/13 11:47:24;;;;;;;66.68;7.82;;;23.10;79.30;;;;;;5029961;28;20049;-62
2022/09/13 11:50:19;;;;;;;59.38;7.47;;;23.20;79.30;;;;;;5029811;28;20040;-62
2022/09/13 11:52:48;;;;;;;46.03;6.80;;;23.30;79.10;;;;;;5015618;28;20408;-63
2022/09/13 11:55:23;;;;;;;53.72;7.57;;;23.30;78.80;;;;;;5032859;28;20440;-62
2022/09/13 11:57:51;;;;;;;53.85;5.55;;;23.40;78.60;;;;;;5034367;28;20028;-63
2022/09/13 12:00:24;;;;;;;39.15;5.45;;;23.40;77.90;;;;;;5012057;28;20029;-63
2022/09/13 12:02:58;;;;;;;33.40;5.57;;;23.50;77.50;;;;;;5021362;28;20144;-63
2022/09/13 12:05:31;;;;;;;29.40;4.40;;;23.50;77.20;;;;;;5004811;28;20033;-63
2022/09/13 12:08:17;;;;;;;35.50;4.95;;;23.60;76.80;;;;;;5000870;28;20033;-64
2022/09/13 12:11:01;;;;;;;30.15;4.63;;;23.70;76.90;;;;;;5020232;28;20698;-63
2022/09/13 12:13:33;;;;;;;43.53;4.75;;;23.70;76.20;;;;;;5015667;28;20048;-63
2022/09/13 12:16:06;;;;;;;23.15;3.53;;;23.80;76.20;;;;;;5013925;28;20055;-63
2022/09/13 12:18:44;;;;;;;33.63;3.88;;;23.80;76.00;;;;;;5009010;28;20635;-63
2022/09/13 12:21:11;;;;;;;39.00;4.32;;;23.90;75.70;;;;;;4997753;28;20021;-63
2022/09/13 12:23:49;;;;;;;20.60;3.72;;;23.90;75.50;;;;;;5022569;28;20044;-63
2022/09/13 12:26:27;;;;;;;26.70;3.75;;;24.00;75.30;;;;;;5027974;28;20108;-63
2022/09/13 12:29:11;;;;;;;31.23;4.72;;;24.10;74.70;;;;;;5026998;28;20029;-63
2022/09/13 12:31:37;;;;;;;110.60;10.98;;;24.10;74.30;;;;;;5013460;28;20389;-63
2022/09/13 12:34:05;;;;;;;59.15;6.53;;;24.20;74.30;;;;;;5027591;28;20102;-63
2022/09/13 12:36:55;;;;;;;37.28;5.78;;;24.30;73.90;;;;;;5007489;28;20037;-63
2022/09/13 12:39:36;;;;;;;55.95;6.25;;;24.40;74.50;;;;;;5023078;28;20033;-63
2022/09/13 12:42:27;;;;;;;46.50;5.03;;;24.40;73.90;;;;;;5026581;28;20047;-63
2022/09/13 12:45:03;;;;;;;43.25;4.93;;;24.40;73.10;;;;;;5027731;28;20499;-63
2022/09/13 12:47:38;;;;;;;41.80;5.80;;;24.50;72.90;;;;;;5023820;28;20028;-64
2022/09/13 12:50:42;;;;;;;49.20;4.97;;;24.50;72.70;;;;;;5023762;28;20116;-63
2022/09/13 12:53:34;;;;;;;57.75;6.15;;;24.60;72.80;;;;;;5019406;28;20143;-63
2022/09/13 12:56:09;;;;;;;40.58;4.60;;;24.60;73.10;;;;;;5025724;28;21997;-62
2022/09/13 12:58:42;;;;;;;41.85;5.18;;;24.60;73.20;;;;;;5009668;28;20043;-63
2022/09/13 13:01:23;;;;;;;48.28;5.43;;;24.60;73.50;;;;;;5026739;28;20051;-64
2022/09/13 13:04:09;;;;;;;39.03;5.68;;;24.70;73.40;;;;;;5024614;28;20056;-63
2022/09/13 13:06:40;;;;;;;54.88;5.70;;;24.70;73.00;;;;;;5011823;28;20093;-64